Time;durP1;ratioP1;P1;durP2;ratioP2;P2;SDS_P1;SDS_P2;PMS_P1;PMS_P2;Temp;Humidity;BMP_temperature;BMP_pressure;BME280_temperature;BME280_humidity;BME280_pressure;Samples;Min_cycle;Max_cycle;Signal;HPM_P1;HPM_P2
2020/12/04 00:00:25;;;;;;;;;;;1.90;99.90;;;;;;5019264;28;19914;-89
2020/12/04 00:02:50;;;;;;;;;;;1.90;99.90;;;;;;5022594;28;19913;-89
2020/12/04 00:05:16;;;;;;;;;;;1.90;99.90;;;;;;5029834;28;19932;-88
2020/12/04 00:07:44;;;;;;;;;;;1.90;99.90;;;;;;5023561;28;19916;-88
2020/12/04 00:10:09;;;;;;;;;;;1.90;99.90;;;;;;5030093;28;19913;-88
2020/12/04 00:12:37;;;;;;;;;;;1.90;99.90;;;;;;5029991;28;20281;-88
2020/12/04 00:15:05;;;;;;;;;;;2.00;99.90;;;;;;5030283;28;20375;-88
2020/12/04 00:17:31;;;;;;;;;;;2.00;99.90;;;;;;5029759;28;20330;-88
2020/12/04 00:19:56;;;;;;;;;;;2.10;99.90;;;;;;5030199;28;19913;-90
2020/12/04 00:22:24;;;;;;;;;;;2.00;99.90;;;;;;5029547;28;19919;-88
2020/12/04 00:24:50;;;;;;;;;;;2.00;99.90;;;;;;5030193;28;19920;-88
2020/12/04 00:27:16;;;;;;;;;;;2.00;99.90;;;;;;5029760;28;19917;-89
2020/12/04 00:29:41;;;;;;;;;;;2.00;99.90;;;;;;5029590;28;19925;-88
2020/12/04 00:32:07;;;;;;;;;;;2.00;99.90;;;;;;5029356;28;19948;-88
2020/12/04 00:34:32;;;;;;;;;;;2.00;99.90;;;;;;5029679;28;19991;-89
2020/12/04 00:37:00;;;;;;;;;;;2.00;99.90;;;;;;5029383;28;19917;-88
2020/12/04 00:39:26;;;;;;;;;;;2.00;99.90;;;;;;5029026;28;20016;-89
2020/12/04 00:41:57;;;;;;;;;;;2.00;99.90;;;;;;5029631;28;20387;-88
2020/12/04 00:44:23;;;;;;;;;;;2.00;99.90;;;;;;5030094;28;19917;-88
2020/12/04 00:46:51;;;;;;;;;;;2.00;99.90;;;;;;5029645;28;19913;-89
2020/12/04 00:49:19;;;;;;;;;;;2.00;99.90;;;;;;5029861;28;19999;-88
2020/12/04 00:51:44;;;;;;;;;;;1.90;99.90;;;;;;5029872;28;19914;-88
2020/12/04 00:54:12;;;;;;;;;;;1.90;99.90;;;;;;5029502;28;19917;-89
2020/12/04 00:56:40;;;;;;;;;;;2.00;99.90;;;;;;5030734;28;19917;-88
2020/12/04 00:59:05;;;;;;;;;;;2.00;99.90;;;;;;5029181;28;19932;-88
2020/12/04 01:01:32;;;;;;;;;;;1.90;99.90;;;;;;5029253;28;19920;-87
2020/12/04 01:03:57;;;;;;;;;;;2.00;99.90;;;;;;5030810;28;19909;-88
2020/12/04 01:06:22;;;;;;;;;;;2.00;99.90;;;;;;5032814;28;19920;-88
2020/12/04 01:08:48;;;;;;;;;;;1.90;99.90;;;;;;5033357;28;20011;-88
2020/12/04 01:11:18;;;;;;;;;;;1.90;99.90;;;;;;5033325;28;20431;-89
2020/12/04 01:13:43;;;;;;;;;;;2.00;99.90;;;;;;5032985;28;19924;-88
2020/12/04 01:16:11;;;;;;;;;;;1.90;99.90;;;;;;5032767;28;19917;-88
2020/12/04 01:18:40;;;;;;;;;;;1.90;99.90;;;;;;5032909;28;20359;-89
2020/12/04 01:21:06;;;;;;;;;;;1.90;99.90;;;;;;5033092;28;19917;-88
2020/12/04 01:23:33;;;;;;;;;;;1.90;99.90;;;;;;5033069;28;20265;-88
2020/12/04 01:26:02;;;;;;;;;;;1.90;99.90;;;;;;5033023;28;19913;-88
2020/12/04 01:28:29;;;;;;;;;;;1.90;99.90;;;;;;5041863;28;19927;-88
2020/12/04 01:30:55;;;;;;;;;;;1.90;99.90;;;;;;5055692;28;19912;-88
2020/12/04 01:33:21;;;;;;;;;;;1.90;99.90;;;;;;5055635;28;19928;-89
2020/12/04 01:35:46;;;;;;;;;;;1.90;99.90;;;;;;5048076;28;19924;-89
2020/12/04 01:38:12;;;;;;;;;;;1.90;99.90;;;;;;5052897;28;20284;-88
2020/12/04 01:40:37;;;;;;;;;;;1.90;99.90;;;;;;5053328;28;20368;-88
2020/12/04 01:43:05;;;;;;;;;;;1.80;99.90;;;;;;5043972;28;19917;-88
2020/12/04 01:45:35;;;;;;;;;;;1.90;99.90;;;;;;5035888;28;20350;-89
2020/12/04 01:48:03;;;;;;;;;;;1.90;99.90;;;;;;5035856;28;20000;-88
2020/12/04 01:50:29;;;;;;;;;;;1.80;99.90;;;;;;5035673;28;19913;-88
2020/12/04 01:52:54;;;;;;;;;;;1.80;99.90;;;;;;5035797;28;19920;-89
2020/12/04 01:55:20;;;;;;;;;;;1.80;99.90;;;;;;5044443;28;19923;-88
2020/12/04 01:57:46;;;;;;;;;;;1.80;99.90;;;;;;5035206;28;19917;-89
2020/12/04 02:00:11;;;;;;;;;;;1.80;99.90;;;;;;5035552;28;19924;-87
2020/12/04 02:02:37;;;;;;;;;;;1.90;99.90;;;;;;5035797;28;19996;-88
2020/12/04 02:05:03;;;;;;;;;;;1.90;99.90;;;;;;5035359;28;19912;-88
2020/12/04 02:07:37;;;;;;;;;;;1.90;99.90;;;;;;5035644;28;19913;-88
2020/12/04 02:10:08;;;;;;;;;;;1.90;99.90;;;;;;5035274;28;19912;-89
2020/12/04 02:12:34;;;;;;;;;;;1.90;99.90;;;;;;5035090;28;20023;-89
2020/12/04 02:15:01;;;;;;;;;;;1.90;99.90;;;;;;5035503;28;20024;-88
2020/12/04 02:17:33;;;;;;;;;;;1.80;99.90;;;;;;5035219;28;19917;-88
2020/12/04 02:19:59;;;;;;;;;;;1.80;99.90;;;;;;5035170;28;19913;-88
2020/12/04 02:22:32;;;;;;;;;;;1.90;99.90;;;;;;5035022;28;19919;-89
2020/12/04 02:24:58;;;;;;;;;;;1.90;99.90;;;;;;5035166;28;19919;-88
2020/12/04 02:27:24;;;;;;;;;;;1.90;99.90;;;;;;5034708;28;19917;-89
2020/12/04 02:29:49;;;;;;;;;;;1.90;99.90;;;;;;5044713;28;19992;-89
2020/12/04 02:32:17;;;;;;;;;;;1.80;99.90;;;;;;5051333;28;19912;-89
2020/12/04 02:34:43;;;;;;;;;;;1.80;99.90;;;;;;5051340;28;20387;-88
2020/12/04 02:37:09;;;;;;;;;;;1.90;99.90;;;;;;5051148;28;19916;-89
2020/12/04 02:39:35;;;;;;;;;;;1.90;99.90;;;;;;5051884;28;19913;-89
2020/12/04 02:42:01;;;;;;;;;;;1.80;99.90;;;;;;5051052;28;19952;-88
2020/12/04 02:44:26;;;;;;;;;;;1.80;99.90;;;;;;5051814;28;20419;-88
2020/12/04 02:46:53;;;;;;;;;;;1.80;99.90;;;;;;5050883;28;19913;-88
2020/12/04 02:49:23;;;;;;;;;;;1.80;99.90;;;;;;5051265;28;19913;-87
2020/12/04 02:51:49;;;;;;;;;;;1.80;99.90;;;;;;5051150;28;19913;-88
2020/12/04 02:54:18;;;;;;;;;;;1.80;99.90;;;;;;5050720;28;20441;-87
2020/12/04 02:56:44;;;;;;;;;;;1.90;99.90;;;;;;5051171;28;19917;-88
2020/12/04 02:59:12;;;;;;;;;;;1.80;99.90;;;;;;5042449;28;20012;-88
2020/12/04 03:01:40;;;;;;;;;;;1.80;99.90;;;;;;5047665;28;19912;-88
2020/12/04 03:04:05;;;;;;;;;;;1.80;99.90;;;;;;5035301;28;19913;-88
2020/12/04 03:06:31;;;;;;;;;;;1.80;99.90;;;;;;5033758;28;19919;-88
2020/12/04 03:08:56;;;;;;;;;;;1.90;99.90;;;;;;5034477;28;19920;-88
2020/12/04 03:11:25;;;;;;;;;;;1.80;99.90;;;;;;5034365;28;19909;-88
2020/12/04 03:13:51;;;;;;;;;;;1.90;99.90;;;;;;5034528;28;19923;-87
2020/12/04 03:16:17;;;;;;;;;;;1.80;99.90;;;;;;5033224;28;19917;-88
2020/12/04 03:18:42;;;;;;;;;;;1.80;99.90;;;;;;5034293;28;20653;-88
2020/12/04 03:21:10;;;;;;;;;;;1.90;99.90;;;;;;5034194;28;19954;-88
2020/12/04 03:23:38;;;;;;;;;;;1.80;99.90;;;;;;5033720;28;19916;-88
2020/12/04 03:26:06;;;;;;;;;;;1.90;99.90;;;;;;5034246;28;19990;-88
2020/12/04 03:28:31;;;;;;;;;;;1.80;99.90;;;;;;5033735;28;19932;-88
2020/12/04 03:30:59;;;;;;;;;;;1.80;99.90;;;;;;5048149;28;20379;-88
2020/12/04 03:33:27;;;;;;;;;;;1.80;99.90;;;;;;5053314;28;19943;-87
2020/12/04 03:35:53;;;;;;;;;;;1.80;99.90;;;;;;5053477;28;19917;-88
2020/12/04 03:38:18;;;;;;;;;;;1.80;99.90;;;;;;5053109;28;20364;-88
2020/12/04 03:40:44;;;;;;;;;;;1.90;99.90;;;;;;5053503;28;20120;-88
2020/12/04 03:43:12;;;;;;;;;;;1.90;99.90;;;;;;5053342;28;19916;-87
2020/12/04 03:45:38;;;;;;;;;;;1.80;99.90;;;;;;5053327;28;20067;-88
2020/12/04 03:48:06;;;;;;;;;;;1.90;99.90;;;;;;5053285;28;19931;-88
2020/12/04 03:50:34;;;;;;;;;;;1.80;99.90;;;;;;5044049;28;19912;-87
2020/12/04 03:53:02;;;;;;;;;;;1.80;99.90;;;;;;5033315;28;19978;-87
2020/12/04 03:55:32;;;;;;;;;;;1.90;99.90;;;;;;5033554;28;19924;-88
2020/12/04 03:57:57;;;;;;;;;;;1.90;99.90;;;;;;5033502;28;19944;-88
2020/12/04 04:00:25;;;;;;;;;;;1.90;99.90;;;;;;5033189;28;20347;-87
2020/12/04 04:02:51;;;;;;;;;;;1.90;99.90;;;;;;5032825;28;19956;-88
2020/12/04 04:05:18;;;;;;;;;;;1.90;99.90;;;;;;5032849;28;20202;-88
2020/12/04 04:07:43;;;;;;;;;;;1.90;99.90;;;;;;5033364;28;19978;-88
2020/12/04 04:10:09;;;;;;;;;;;1.90;99.90;;;;;;5033363;28;19916;-88
2020/12/04 04:12:35;;;;;;;;;;;1.90;99.90;;;;;;5033546;28;20299;-88
2020/12/04 04:15:00;;;;;;;;;;;1.90;99.90;;;;;;5032998;28;19917;-88
2020/12/04 04:17:28;;;;;;;;;;;1.90;99.90;;;;;;5032389;28;20299;-88
2020/12/04 04:19:54;;;;;;;;;;;1.90;99.90;;;;;;5032956;28;20027;-88
2020/12/04 04:22:19;;;;;;;;;;;2.00;99.90;;;;;;5032782;28;20006;-89
2020/12/04 04:24:47;;;;;;;;;;;2.10;99.90;;;;;;5033175;28;19913;-88
2020/12/04 04:27:13;;;;;;;;;;;2.10;99.90;;;;;;5032514;28;19919;-88
2020/12/04 04:29:38;;;;;;;;;;;2.10;99.90;;;;;;5040394;28;19925;-87
2020/12/04 04:32:04;;;;;;;;;;;2.10;99.90;;;;;;5049394;28;20042;-88
2020/12/04 04:34:32;;;;;;;;;;;2.10;99.90;;;;;;5049150;28;20386;-89
2020/12/04 04:37:00;;;;;;;;;;;2.10;99.90;;;;;;5049400;28;20376;-88
2020/12/04 04:39:28;;;;;;;;;;;2.10;99.90;;;;;;5048486;28;19920;-88
2020/12/04 04:41:54;;;;;;;;;;;2.10;99.90;;;;;;5049669;28;19912;-88
2020/12/04 04:44:22;;;;;;;;;;;2.10;99.90;;;;;;5049569;28;19913;-88
2020/12/04 04:47:02;;;;;;;;;;;2.10;99.90;;;;;;5049270;28;19913;-88
2020/12/04 04:49:28;;;;;;;;;;;2.10;99.90;;;;;;5030262;28;20325;-87
2020/12/04 04:51:59;;;;;;;;;;;2.10;99.90;;;;;;5030854;28;19917;-88
2020/12/04 04:54:39;;;;;;;;;;;2.10;99.90;;;;;;5018080;28;19943;-89
2020/12/04 04:57:07;;;;;;;;;;;2.10;99.90;;;;;;5012530;28;19917;-88
2020/12/04 04:59:37;;;;;;;;;;;2.10;99.90;;;;;;5012775;28;19913;-88
2020/12/04 05:02:03;;;;;;;;;;;2.10;99.90;;;;;;5015370;28;19921;-87
2020/12/04 05:04:46;;;;;;;;;;;2.20;99.90;;;;;;5015223;28;19917;-89
2020/12/04 05:07:17;;;;;;;;;;;2.20;99.90;;;;;;5012582;28;20400;-88
2020/12/04 05:09:43;;;;;;;;;;;2.20;99.90;;;;;;5012650;28;19936;-88
2020/12/04 05:12:08;;;;;;;;;;;2.20;99.90;;;;;;5012469;28;19913;-88
2020/12/04 05:14:34;;;;;;;;;;;2.20;99.90;;;;;;5013089;28;19925;-88
2020/12/04 05:17:08;;;;;;;;;;;2.20;99.90;;;;;;5013026;28;20226;-88
2020/12/04 05:19:36;;;;;;;;;;;2.20;99.90;;;;;;5012810;28;19914;-89
2020/12/04 05:22:13;;;;;;;;;;;2.20;99.90;;;;;;5012960;28;20047;-89
2020/12/04 05:24:39;;;;;;;;;;;2.20;99.90;;;;;;5012460;28;19913;-88
2020/12/04 05:27:43;;;;;;;;;;;2.20;99.90;;;;;;5013657;28;19913;-88
2020/12/04 05:30:09;;;;;;;;;;;2.20;99.90;;;;;;5044144;28;20027;-88
2020/12/04 05:32:34;;;;;;;;;;;2.30;99.90;;;;;;5032535;28;20039;-87
2020/12/04 05:35:07;;;;;;;;;;;2.30;99.90;;;;;;5031997;28;19956;-88
2020/12/04 05:37:32;;;;;;;;;;;2.20;99.90;;;;;;5032139;28;19917;-88
2020/12/04 05:39:58;;;;;;;;;;;2.30;99.90;;;;;;5032666;28;19962;-88
2020/12/04 05:42:34;;;;;;;;;;;2.30;99.90;;;;;;5031853;28;19917;-87
2020/12/04 05:45:02;;;;;;;;;;;2.30;99.90;;;;;;5032001;28;19917;-87
2020/12/04 05:47:34;;;;;;;;;;;2.40;99.90;;;;;;5049765;28;20391;-87
2020/12/04 05:50:03;;;;;;;;;;;2.50;99.90;;;;;;5034295;28;19920;-88
2020/12/04 05:52:28;;;;;;;;;;;2.50;99.90;;;;;;5035646;28;19916;-88
2020/12/04 05:54:56;;;;;;;;;;;2.40;99.90;;;;;;5035727;28;19966;-88
2020/12/04 05:57:24;;;;;;;;;;;2.40;99.90;;;;;;5036547;28;19939;-88
2020/12/04 05:59:49;;;;;;;;;;;2.40;99.90;;;;;;5035712;28;19909;-87
2020/12/04 06:02:15;;;;;;;;;;;2.40;99.90;;;;;;5036033;28;19923;-87
2020/12/04 06:04:42;;;;;;;;;;;2.40;99.90;;;;;;5035603;28;19908;-87
2020/12/04 06:07:13;;;;;;;;;;;2.40;99.90;;;;;;5035276;28;19920;-87
2020/12/04 06:09:41;;;;;;;;;;;2.40;99.90;;;;;;5035290;28;19919;-87
2020/12/04 06:12:13;;;;;;;;;;;2.40;99.90;;;;;;5035100;28;19919;-87
2020/12/04 06:14:39;;;;;;;;;;;2.40;99.90;;;;;;5034969;28;19924;-87
2020/12/04 06:17:05;;;;;;;;;;;2.50;99.90;;;;;;5035857;28;20307;-87
2020/12/04 06:19:36;;;;;;;;;;;2.50;99.90;;;;;;5051547;28;19909;-89
2020/12/04 06:22:11;;;;;;;;;;;2.50;99.90;;;;;;5052851;28;19920;-88
2020/12/04 06:24:52;;;;;;;;;;;2.50;99.90;;;;;;5034723;28;19919;-87
2020/12/04 06:27:33;;;;;;;;;;;2.50;99.90;;;;;;5051720;28;19935;-88
2020/12/04 06:29:58;;;;;;;;;;;2.50;99.90;;;;;;5032104;28;19921;-88
2020/12/04 06:32:36;;;;;;;;;;;2.50;99.90;;;;;;5031559;28;20258;-87
2020/12/04 06:35:03;;;;;;;;;;;2.50;99.90;;;;;;5032027;28;19940;-87
2020/12/04 06:37:41;;;;;;;;;;;2.50;99.90;;;;;;5031229;28;19940;-87
2020/12/04 06:40:29;;;;;;;;;;;2.60;99.90;;;;;;5032376;28;20019;-87
2020/12/04 06:42:56;;;;;;;;;;;2.60;99.90;;;;;;5033008;28;19913;-89
2020/12/04 06:45:24;;;;;;;;;;;2.70;99.90;;;;;;5031542;28;19913;-87
2020/12/04 06:48:08;;;;;;;;;;;2.60;99.90;;;;;;5031128;28;19919;-88
2020/12/04 06:50:43;;;;;;;;;;;2.60;99.90;;;;;;5031368;28;19913;-87
2020/12/04 06:53:12;;;;;;;;;;;2.60;99.90;;;;;;5031519;28;19916;-88
2020/12/04 06:55:41;;;;;;;;;;;2.60;99.90;;;;;;5031170;28;20377;-88
2020/12/04 06:58:07;;;;;;;;;;;2.60;99.90;;;;;;5031370;28;19913;-88
2020/12/04 07:00:33;;;;;;;;;;;2.70;99.90;;;;;;5030506;28;20414;-87
2020/12/04 07:02:59;;;;;;;;;;;2.70;99.90;;;;;;5030720;28;19913;-87
2020/12/04 07:05:26;;;;;;;;;;;2.70;99.90;;;;;;5031221;28;19956;-88
2020/12/04 07:08:04;;;;;;;;;;;2.60;99.90;;;;;;5031083;28;19920;-88
2020/12/04 07:10:33;;;;;;;;;;;2.70;99.90;;;;;;5031018;28;20035;-88
2020/12/04 07:13:00;;;;;;;;;;;2.80;99.90;;;;;;5031189;28;19913;-88
2020/12/04 07:15:28;;;;;;;;;;;2.70;99.90;;;;;;5030971;28;19928;-88
2020/12/04 07:17:57;;;;;;;;;;;2.70;99.90;;;;;;5030845;28;19913;-87
2020/12/04 07:20:35;;;;;;;;;;;2.80;99.90;;;;;;5030503;28;19996;-88
2020/12/04 07:23:07;;;;;;;;;;;2.70;99.90;;;;;;5030035;28;19913;-87
2020/12/04 07:25:35;;;;;;;;;;;2.80;99.90;;;;;;5031904;28;20423;-88
2020/12/04 07:28:03;;;;;;;;;;;2.80;99.90;;;;;;5034668;28;20295;-87
2020/12/04 07:30:29;;;;;;;;;;;2.70;99.90;;;;;;5035599;28;19956;-88
2020/12/04 07:32:55;;;;;;;;;;;2.70;99.90;;;;;;5033705;28;20316;-87
2020/12/04 07:35:21;;;;;;;;;;;2.80;99.90;;;;;;5033518;28;19917;-89
2020/12/04 07:37:49;;;;;;;;;;;2.70;99.90;;;;;;5034119;28;20065;-87
2020/12/04 07:40:18;;;;;;;;;;;2.70;99.90;;;;;;5033619;28;20415;-87
2020/12/04 07:42:44;;;;;;;;;;;2.80;99.90;;;;;;5033847;28;19920;-88
2020/12/04 07:45:13;;;;;;;;;;;2.80;99.90;;;;;;5033334;28;19913;-88
2020/12/04 07:47:42;;;;;;;;;;;2.80;99.90;;;;;;5033593;28;19913;-87
2020/12/04 07:50:11;;;;;;;;;;;2.80;99.90;;;;;;5033659;28;19971;-88
2020/12/04 07:52:36;;;;;;;;;;;2.80;99.90;;;;;;5033776;28;20344;-88
2020/12/04 07:55:14;;;;;;;;;;;2.80;99.90;;;;;;5033221;28;20326;-87
2020/12/04 07:57:53;;;;;;;;;;;2.80;99.90;;;;;;5033375;28;19916;-88
2020/12/04 08:00:21;;;;;;;;;;;2.90;99.90;;;;;;5033110;28;19961;-87
2020/12/04 08:02:47;;;;;;;;;;;2.90;99.90;;;;;;5033038;28;19928;-87
2020/12/04 08:05:22;;;;;;;;;;;2.90;99.90;;;;;;5032933;28;19961;-87
2020/12/04 08:07:53;;;;;;;;;;;2.90;99.90;;;;;;5032248;28;20708;-87
2020/12/04 08:10:21;;;;;;;;;;;2.90;99.90;;;;;;5030935;28;20296;-87
2020/12/04 08:12:50;;;;;;;;;;;2.90;99.90;;;;;;5031772;28;19913;-87
2020/12/04 08:15:17;;;;;;;;;;;2.90;99.90;;;;;;5030537;28;19925;-87
2020/12/04 08:17:42;;;;;;;;;;;3.00;99.90;;;;;;5030243;28;19920;-87
2020/12/04 08:20:14;;;;;;;;;;;3.00;99.90;;;;;;5031798;28;19917;-88
2020/12/04 08:22:47;;;;;;;;;;;3.00;99.90;;;;;;5030753;28;19913;-88
2020/12/04 08:25:14;;;;;;;;;;;3.00;99.90;;;;;;5039114;28;19913;-87
2020/12/04 08:27:41;;;;;;;;;;;3.10;99.90;;;;;;5032092;28;19913;-87
2020/12/04 08:30:10;;;;;;;;;;;3.20;99.90;;;;;;5050203;28;19912;-88
2020/12/04 08:32:38;;;;;;;;;;;3.20;99.70;;;;;;5044660;28;19913;-88
2020/12/04 08:35:10;;;;;;;;;;;3.30;99.90;;;;;;5031339;28;20398;-87
2020/12/04 08:37:38;;;;;;;;;;;3.20;99.90;;;;;;5029585;28;20336;-87
2020/12/04 08:40:18;;;;;;;;;;;3.30;99.90;;;;;;5029538;28;19967;-87
2020/12/04 08:42:44;;;;;;;;;;;3.40;99.40;;;;;;5032813;28;19919;-88
2020/12/04 08:45:09;;;;;;;;;;;3.30;99.90;;;;;;5028782;28;19913;-85
2020/12/04 08:47:35;;;;;;;;;;;3.40;99.00;;;;;;5028869;28;19949;-88
2020/12/04 08:50:08;;;;;;;;;;;3.40;99.90;;;;;;5028973;28;19920;-87
2020/12/04 08:52:35;;;;;;;;;;;3.30;99.90;;;;;;5029623;28;20003;-87
2020/12/04 08:55:04;;;;;;;;;;;3.30;99.50;;;;;;5028871;28;19917;-87
2020/12/04 08:57:30;;;;;;;;;;;3.30;99.90;;;;;;5029237;28;19924;-87
2020/12/04 08:59:58;;;;;;;;;;;3.30;99.90;;;;;;5030014;28;19922;-87
2020/12/04 09:02:23;;;;;;;;;;;3.30;99.90;;;;;;5030554;28;19913;-88
2020/12/04 09:04:49;;;;;;;;;;;3.30;99.90;;;;;;5032504;28;20382;-89
2020/12/04 09:07:19;;;;;;;;;;;3.40;99.30;;;;;;5032568;28;19944;-88
2020/12/04 09:09:45;;;;;;;;;;;3.50;98.60;;;;;;5050046;28;19919;-87
2020/12/04 09:12:11;;;;;;;;;;;3.60;98.10;;;;;;5032493;28;19916;-88
2020/12/04 09:14:39;;;;;;;;;;;3.60;98.40;;;;;;5032231;28;19960;-87
2020/12/04 09:17:04;;;;;;;;;;;3.70;98.70;;;;;;5032466;28;19917;-88
2020/12/04 09:19:30;;;;;;;;;;;3.80;97.30;;;;;;5032292;28;19935;-88
2020/12/04 09:21:56;;;;;;;;;;;3.90;97.40;;;;;;5032322;28;20364;-88
2020/12/04 09:24:24;;;;;;;;;;;3.90;96.60;;;;;;5031699;28;20403;-88
2020/12/04 09:26:54;;;;;;;;;;;4.00;96.80;;;;;;5033977;28;20373;-88
2020/12/04 09:29:20;;;;;;;;;;;3.90;97.60;;;;;;5025331;28;19932;-88
2020/12/04 09:31:45;;;;;;;;;;;3.90;97.30;;;;;;5013356;28;19918;-88
2020/12/04 09:34:11;;;;;;;;;;;3.90;97.40;;;;;;5013059;28;20015;-88
2020/12/04 09:36:36;;;;;;;;;;;4.00;97.40;;;;;;5019116;28;19968;-87
2020/12/04 09:39:03;;;;;;;;;;;4.10;96.40;;;;;;5021570;28;20272;-89
2020/12/04 09:41:28;;;;;;;;;;;4.00;95.90;;;;;;5029925;28;19996;-89
2020/12/04 09:43:54;;;;;;;;;;;4.10;96.50;;;;;;5026440;28;19913;-87
2020/12/04 09:46:19;;;;;;;;;;;4.10;96.60;;;;;;5022922;28;20380;-88
2020/12/04 09:48:50;;;;;;;;;;;4.10;96.20;;;;;;5020429;28;20019;-88
2020/12/04 09:51:23;;;;;;;;;;;4.10;95.90;;;;;;5023958;28;19968;-88
2020/12/04 09:53:51;;;;;;;;;;;4.20;96.70;;;;;;5029312;28;19917;-87
2020/12/04 09:56:17;;;;;;;;;;;4.20;96.10;;;;;;5032484;28;20387;-87
2020/12/04 09:58:44;;;;;;;;;;;4.30;96.90;;;;;;5027757;28;19917;-88
2020/12/04 10:01:13;;;;;;;;;;;4.30;95.30;;;;;;5032417;28;19913;-88
2020/12/04 10:03:38;;;;;;;;;;;4.40;95.00;;;;;;5031974;28;19913;-88
2020/12/04 10:06:04;;;;;;;;;;;4.40;94.80;;;;;;5032106;28;20019;-88
2020/12/04 10:08:29;;;;;;;;;;;4.40;94.70;;;;;;5032218;28;19913;-86
2020/12/04 10:10:57;;;;;;;;;;;4.40;94.90;;;;;;5031682;28;20340;-85
2020/12/04 10:13:23;;;;;;;;;;;4.30;95.30;;;;;;5031946;28;19921;-85
2020/12/04 10:15:48;;;;;;;;;;;4.30;94.80;;;;;;5023048;28;20028;-85
2020/12/04 10:18:16;;;;;;;;;;;4.40;94.10;;;;;;5020391;28;19952;-86
2020/12/04 10:20:42;;;;;;;;;;;4.40;94.80;;;;;;5015957;28;19936;-85
2020/12/04 10:23:12;;;;;;;;;;;4.40;96.20;;;;;;5012243;28;19913;-85
2020/12/04 10:25:40;;;;;;;;;;;4.30;97.70;;;;;;5012301;28;20281;-87
2020/12/04 10:28:05;;;;;;;;;;;4.30;97.00;;;;;;5016379;28;19925;-88
2020/12/04 10:30:31;;;;;;;;;;;4.30;96.50;;;;;;5050251;28;20379;-88
2020/12/04 10:32:56;;;;;;;;;;;4.30;97.50;;;;;;5052092;28;19926;-88
2020/12/04 10:35:22;;;;;;;;;;;4.30;96.40;;;;;;5051908;28;19921;-89
2020/12/04 10:37:47;;;;;;;;;;;4.30;97.30;;;;;;5035371;28;20428;-89
2020/12/04 10:40:13;;;;;;;;;;;4.30;96.60;;;;;;5031780;28;20270;-87
2020/12/04 10:42:38;;;;;;;;;;;4.30;96.20;;;;;;5032391;28;20004;-88
2020/12/04 10:45:04;;;;;;;;;;;4.40;96.70;;;;;;5031132;28;19920;-89
2020/12/04 10:47:29;;;;;;;;;;;4.30;96.50;;;;;;5031554;28;20364;-88
2020/12/04 10:49:55;;;;;;;;;;;4.30;96.50;;;;;;5031445;28;19921;-88
2020/12/04 10:52:20;;;;;;;;;;;4.30;96.90;;;;;;5031658;28;19913;-88
2020/12/04 10:54:46;;;;;;;;;;;4.30;97.80;;;;;;5031134;28;19913;-88
2020/12/04 10:57:12;;;;;;;;;;;4.30;97.20;;;;;;5031372;28;20233;-87
2020/12/04 10:59:39;;;;;;;;;;;4.30;97.40;;;;;;5031083;28;20158;-89
2020/12/04 11:02:09;;;;;;;;;;;4.20;97.30;;;;;;5032444;28;19913;-88
2020/12/04 11:07:21;;;;;;;;;;;4.30;97.00;;;;;;5046603;28;19963;-88
2020/12/04 11:09:49;;;;;;;;;;;4.30;97.20;;;;;;5033790;28;20016;-89
2020/12/04 11:12:15;;;;;;;;;;;4.40;98.40;;;;;;5034041;28;19924;-88
2020/12/04 11:14:43;;;;;;;;;;;4.30;97.90;;;;;;5033806;28;19916;-88
2020/12/04 11:17:13;;;;;;;;;;;4.40;96.50;;;;;;5034122;28;20275;-88
2020/12/04 11:19:41;;;;;;;;;;;4.50;95.80;;;;;;5034054;28;19912;-88
2020/12/04 11:22:09;;;;;;;;;;;4.50;97.10;;;;;;5033946;28;19919;-87
2020/12/04 11:24:35;;;;;;;;;;;4.50;96.40;;;;;;5034145;28;19919;-87
2020/12/04 11:27:01;;;;;;;;;;;4.50;98.00;;;;;;5033391;28;20008;-88
2020/12/04 11:29:31;;;;;;;;;;;4.50;99.60;;;;;;5030554;28;19947;-88
2020/12/04 11:31:57;;;;;;;;;;;4.50;97.80;;;;;;5030052;28;19913;-89
2020/12/04 11:34:22;;;;;;;;;;;4.60;96.50;;;;;;5031208;28;19924;-88
2020/12/04 11:36:48;;;;;;;;;;;4.60;96.70;;;;;;5030521;28;19917;-88
2020/12/04 11:39:13;;;;;;;;;;;4.60;95.70;;;;;;5030048;28;19990;-87
2020/12/04 11:41:39;;;;;;;;;;;4.70;95.10;;;;;;5030153;28;19917;-88
2020/12/04 11:44:04;;;;;;;;;;;4.60;96.70;;;;;;5047159;28;20357;-90
2020/12/04 11:46:30;;;;;;;;;;;4.70;96.00;;;;;;5030255;28;19920;-88
2020/12/04 11:48:55;;;;;;;;;;;4.80;95.60;;;;;;5031068;28;20300;-88
2020/12/04 11:51:22;;;;;;;;;;;4.80;96.30;;;;;;5029673;28;19920;-88
2020/12/04 11:53:50;;;;;;;;;;;4.70;96.40;;;;;;5029886;28;20428;-87
2020/12/04 11:56:19;;;;;;;;;;;4.60;97.40;;;;;;5029922;28;19921;-88
2020/12/04 11:58:47;;;;;;;;;;;4.60;96.10;;;;;;5028799;28;19959;-88
2020/12/04 12:01:13;;;;;;;;;;;4.70;96.10;;;;;;5027056;28;19919;-88
2020/12/04 12:03:40;;;;;;;;;;;4.70;96.00;;;;;;5020744;28;20316;-89
2020/12/04 12:06:06;;;;;;;;;;;4.80;94.90;;;;;;5009724;28;19917;-88
2020/12/04 12:08:32;;;;;;;;;;;4.80;95.00;;;;;;5029361;28;20360;-89
2020/12/04 12:10:58;;;;;;;;;;;4.80;94.50;;;;;;5029964;28;19924;-88
2020/12/04 12:13:26;;;;;;;;;;;4.80;95.80;;;;;;5029424;28;19913;-88
2020/12/04 12:15:56;;;;;;;;;;;4.80;97.20;;;;;;5029831;28;20087;-88
2020/12/04 12:18:21;;;;;;;;;;;4.70;96.50;;;;;;5022387;28;19936;-88
2020/12/04 12:20:47;;;;;;;;;;;4.80;96.70;;;;;;5021328;28;20334;-88
2020/12/04 12:23:12;;;;;;;;;;;4.70;97.70;;;;;;5029824;28;19909;-88
2020/12/04 12:25:41;;;;;;;;;;;4.70;96.90;;;;;;5031267;28;19909;-88
2020/12/04 12:28:07;;;;;;;;;;;4.70;97.70;;;;;;5030984;28;19921;-87
2020/12/04 12:30:32;;;;;;;;;;;4.60;98.00;;;;;;5031083;28;20058;-88
2020/12/04 12:32:58;;;;;;;;;;;4.60;98.30;;;;;;5031109;28;19952;-88
2020/12/04 12:35:24;;;;;;;;;;;4.60;98.50;;;;;;5031026;28;19917;-87
2020/12/04 12:37:53;;;;;;;;;;;4.60;98.20;;;;;;5031164;28;19909;-88
2020/12/04 12:40:21;;;;;;;;;;;4.60;96.80;;;;;;5031003;28;20318;-87
2020/12/04 12:42:47;;;;;;;;;;;4.70;97.40;;;;;;5031103;28;19910;-87
2020/12/04 12:45:16;;;;;;;;;;;4.70;96.90;;;;;;5030867;28;19916;-88
2020/12/04 12:47:44;;;;;;;;;;;4.70;96.50;;;;;;5030950;28;19909;-87
2020/12/04 12:50:09;;;;;;;;;;;4.70;97.40;;;;;;5031169;28;19944;-87
2020/12/04 12:52:40;;;;;;;;;;;4.70;99.30;;;;;;5031032;28;19964;-87
2020/12/04 12:55:05;;;;;;;;;;;4.60;99.20;;;;;;5030913;28;19917;-89
2020/12/04 12:57:33;;;;;;;;;;;4.60;99.10;;;;;;5031069;28;19920;-87
2020/12/04 12:59:59;;;;;;;;;;;4.60;99.50;;;;;;5025668;28;19921;-88
2020/12/04 13:02:24;;;;;;;;;;;4.60;99.00;;;;;;5015153;28;19910;-86
2020/12/04 13:04:50;;;;;;;;;;;4.60;98.30;;;;;;5018383;28;19914;-87
2020/12/04 13:07:15;;;;;;;;;;;4.60;98.20;;;;;;5024583;28;19942;-87
2020/12/04 13:09:46;;;;;;;;;;;4.60;98.90;;;;;;5015128;28;20137;-86
2020/12/04 13:12:14;;;;;;;;;;;4.60;98.20;;;;;;5014958;28;19909;-87
2020/12/04 13:14:42;;;;;;;;;;;4.60;98.70;;;;;;5014678;28;19926;-89
2020/12/04 13:17:08;;;;;;;;;;;4.60;98.80;;;;;;5014860;28;19913;-88
2020/12/04 13:19:33;;;;;;;;;;;4.60;99.20;;;;;;5014436;28;19917;-88
2020/12/04 13:22:04;;;;;;;;;;;4.50;99.20;;;;;;5023984;28;19976;-89
2020/12/04 13:24:37;;;;;;;;;;;4.60;98.80;;;;;;5023653;28;20373;-89
2020/12/04 13:27:05;;;;;;;;;;;4.60;98.70;;;;;;5025053;28;19913;-88
2020/12/04 13:29:31;;;;;;;;;;;4.50;99.00;;;;;;5024782;28;19920;-87
2020/12/04 13:31:57;;;;;;;;;;;4.50;99.30;;;;;;5022450;28;19917;-87
2020/12/04 13:34:24;;;;;;;;;;;4.50;99.50;;;;;;5024542;28;19914;-87
2020/12/04 13:36:49;;;;;;;;;;;4.50;99.90;;;;;;5024972;28;19913;-87
2020/12/04 13:39:18;;;;;;;;;;;4.50;99.90;;;;;;5025055;28;20460;-87
2020/12/04 13:41:46;;;;;;;;;;;4.50;99.90;;;;;;5023346;28;19910;-88
2020/12/04 13:44:12;;;;;;;;;;;4.40;99.90;;;;;;5028498;28;19999;-86
2020/12/04 13:46:38;;;;;;;;;;;4.40;99.90;;;;;;5034026;28;19909;-86
2020/12/04 13:49:04;;;;;;;;;;;4.40;99.90;;;;;;5034248;28;19916;-87
2020/12/04 13:51:30;;;;;;;;;;;4.40;99.90;;;;;;5030439;28;20316;-87
2020/12/04 13:53:56;;;;;;;;;;;4.30;99.90;;;;;;5022457;28;19928;-86
2020/12/04 13:56:21;;;;;;;;;;;4.30;99.90;;;;;;5024859;28;19947;-87
2020/12/04 13:58:47;;;;;;;;;;;4.30;99.90;;;;;;5034352;28;19913;-86
2020/12/04 14:01:14;;;;;;;;;;;4.30;99.90;;;;;;5031385;28;19913;-87
2020/12/04 14:03:41;;;;;;;;;;;4.30;99.90;;;;;;5025402;28;19909;-86
2020/12/04 14:06:07;;;;;;;;;;;4.20;99.90;;;;;;5033682;28;19917;-86
2020/12/04 14:08:32;;;;;;;;;;;4.20;99.90;;;;;;5033811;28;19909;-86
2020/12/04 14:11:00;;;;;;;;;;;4.30;99.90;;;;;;5033324;28;19932;-89
2020/12/04 14:13:26;;;;;;;;;;;4.20;99.90;;;;;;5033749;28;19921;-88
2020/12/04 14:15:54;;;;;;;;;;;4.20;99.90;;;;;;5034323;28;19921;-87
2020/12/04 14:18:19;;;;;;;;;;;4.10;99.90;;;;;;5033642;28;19916;-86
2020/12/04 14:20:47;;;;;;;;;;;4.10;99.90;;;;;;5033734;28;19913;-88
2020/12/04 14:23:15;;;;;;;;;;;4.10;99.90;;;;;;5033807;28;20343;-87
2020/12/04 14:25:40;;;;;;;;;;;4.10;99.90;;;;;;5033360;28;19909;-87
2020/12/04 14:28:12;;;;;;;;;;;4.10;99.90;;;;;;5032950;28;19967;-87
2020/12/04 14:30:38;;;;;;;;;;;4.00;99.90;;;;;;5034632;28;19920;-86
2020/12/04 14:33:03;;;;;;;;;;;4.00;99.90;;;;;;5033550;28;19909;-88
2020/12/04 14:35:29;;;;;;;;;;;4.00;99.90;;;;;;5033313;28;19917;-87